createdAt,value
2018-11-27T00:00:34.176Z,36.97
2018-11-27T00:03:08.991Z,36.33
2018-11-27T00:05:38.155Z,40.70
2018-11-27T00:08:06.959Z,36.23
2018-11-27T00:10:36.683Z,33.27
2018-11-27T00:13:04.910Z,33.80
2018-11-27T00:15:33.117Z,33.20
2018-11-27T00:18:01.336Z,33.23
2018-11-27T00:20:29.552Z,32.17
2018-11-27T00:22:57.752Z,34.27
2018-11-27T00:25:25.971Z,37.47
2018-11-27T00:27:54.169Z,29.50
2018-11-27T00:30:22.483Z,32.23
2018-11-27T00:32:50.940Z,33.07
2018-11-27T00:35:20.046Z,31.23
2018-11-27T00:37:48.262Z,32.90
2018-11-27T00:40:19.247Z,32.43
2018-11-27T00:42:47.443Z,30.77
2018-11-27T00:45:17.560Z,37.80
2018-11-27T00:47:47.023Z,34.90
2018-11-27T00:50:16.116Z,32.83
2018-11-27T00:52:44.329Z,32.97
2018-11-27T00:55:13.658Z,33.93
2018-11-27T00:57:42.608Z,30.63
2018-11-27T01:00:17.717Z,36.47
2018-11-27T01:02:46.751Z,34.37
2018-11-27T01:05:15.884Z,31.67
2018-11-27T01:07:44.089Z,30.53
2018-11-27T01:10:16.356Z,30.73
2018-11-27T01:12:44.632Z,33.40
2018-11-27T01:15:13.557Z,28.77
2018-11-27T01:17:44.393Z,31.70
2018-11-27T01:20:17.083Z,34.10
2018-11-27T01:22:45.261Z,30.67
2018-11-27T01:25:13.525Z,34.83
2018-11-27T01:27:41.716Z,30.23
2018-11-27T01:30:18.245Z,33.13
2018-11-27T01:32:46.546Z,31.67
2018-11-27T01:35:17.470Z,30.40
2018-11-27T01:37:45.911Z,29.60
2018-11-27T01:40:15.920Z,33.67
2018-11-27T01:42:44.192Z,28.03
2018-11-27T01:45:13.284Z,35.33
2018-11-27T01:47:41.481Z,36.33
2018-11-27T01:50:12.987Z,28.47
2018-11-27T01:52:41.216Z,31.07
2018-11-27T01:55:12.468Z,34.37
2018-11-27T01:57:40.656Z,30.37
2018-11-27T02:00:29.255Z,31.37
2018-11-27T02:02:58.210Z,29.17
2018-11-27T02:05:26.697Z,27.27
2018-11-27T02:07:54.919Z,31.67
2018-11-27T02:10:23.092Z,27.73
2018-11-27T02:12:52.057Z,31.03
2018-11-27T02:15:24.047Z,28.93
2018-11-27T02:17:52.436Z,29.20
2018-11-27T02:20:20.629Z,32.93
2018-11-27T02:22:48.805Z,28.37
2018-11-27T02:25:20.921Z,29.93
2018-11-27T02:27:49.101Z,29.57
2018-11-27T02:30:18.860Z,33.27
2018-11-27T02:32:47.033Z,29.63
2018-11-27T02:35:19.984Z,25.00
2018-11-27T02:37:49.369Z,34.30
2018-11-27T02:40:18.019Z,32.33
2018-11-27T02:42:46.188Z,28.73
2018-11-27T02:45:15.966Z,27.57
2018-11-27T02:47:45.028Z,24.27
2018-11-27T02:50:15.767Z,28.63
2018-11-27T02:52:44.118Z,27.73
2018-11-27T02:55:13.337Z,27.63
2018-11-27T02:57:41.741Z,26.70
2018-11-27T03:00:11.732Z,28.50
2018-11-27T03:02:39.987Z,25.83
2018-11-27T03:05:11.254Z,24.00
2018-11-27T03:07:39.423Z,25.77
2018-11-27T03:10:13.037Z,25.43
2018-11-27T03:12:41.215Z,25.13
2018-11-27T03:15:13.269Z,29.00
2018-11-27T03:17:41.443Z,27.87
2018-11-27T03:20:10.646Z,26.90
2018-11-27T03:22:39.016Z,30.17
2018-11-27T03:25:10.278Z,28.63
2018-11-27T03:27:38.734Z,27.10
2018-11-27T03:30:10.419Z,26.10
2018-11-27T03:32:38.614Z,26.73
2018-11-27T03:35:09.093Z,30.40
2018-11-27T03:37:37.477Z,30.67
2018-11-27T03:40:09.057Z,25.93
2018-11-27T03:42:37.247Z,30.90
2018-11-27T03:45:06.136Z,28.20
2018-11-27T03:47:34.336Z,30.83
2018-11-27T03:50:02.536Z,32.93
2018-11-27T03:52:30.736Z,29.30
2018-11-27T03:54:58.946Z,32.23
2018-11-27T03:57:27.151Z,31.87
2018-11-27T03:59:55.577Z,29.50
2018-11-27T04:02:23.997Z,35.43
2018-11-27T04:04:52.209Z,30.13
2018-11-27T04:07:20.413Z,27.90
2018-11-27T04:09:48.881Z,36.23
2018-11-27T04:12:17.081Z,30.33
2018-11-27T04:14:45.297Z,31.20
2018-11-27T04:17:13.492Z,25.93
2018-11-27T04:19:41.680Z,30.70
2018-11-27T04:22:09.855Z,29.10
2018-11-27T04:24:38.264Z,29.17
2018-11-27T04:27:06.662Z,34.23
2018-11-27T04:29:34.828Z,28.23
2018-11-27T04:32:02.999Z,34.13
2018-11-27T04:34:31.172Z,33.50
2018-11-27T04:36:59.351Z,29.80
2018-11-27T04:39:27.723Z,31.47
2018-11-27T04:41:55.888Z,31.67
2018-11-27T04:44:24.078Z,36.40
2018-11-27T04:46:52.280Z,34.53
2018-11-27T04:49:20.471Z,26.27
2018-11-27T04:51:48.660Z,33.27
2018-11-27T04:54:16.849Z,48.90
2018-11-27T04:56:45.060Z,32.37
2018-11-27T04:59:13.257Z,38.10
2018-11-27T05:01:41.457Z,45.50
2018-11-27T05:04:09.654Z,40.30
2018-11-27T05:06:37.865Z,44.60
2018-11-27T05:09:09.771Z,42.03
2018-11-27T05:11:38.300Z,43.40
2018-11-27T05:14:06.853Z,39.93
2018-11-27T05:16:35.152Z,36.97
2018-11-27T05:19:03.360Z,32.40
2018-11-27T05:21:31.579Z,46.83
2018-11-27T05:24:00.348Z,43.10
2018-11-27T05:26:28.572Z,43.37
2018-11-27T05:28:56.776Z,36.63
2018-11-27T05:31:24.999Z,47.03
2018-11-27T05:33:53.189Z,44.03
2018-11-27T05:36:21.615Z,46.50
2018-11-27T05:38:49.816Z,40.23
2018-11-27T05:41:18.025Z,39.63
2018-11-27T05:43:46.289Z,36.93
2018-11-27T05:46:14.518Z,36.57
2018-11-27T05:48:42.932Z,39.23
2018-11-27T05:51:11.180Z,43.33
2018-11-27T05:53:39.377Z,41.73
2018-11-27T05:56:07.607Z,46.90
2018-11-27T05:58:35.779Z,46.07
2018-11-27T06:01:04.104Z,39.77
2018-11-27T06:03:32.281Z,32.03
2018-11-27T06:06:00.457Z,34.80
2018-11-27T06:08:28.686Z,32.37
2018-11-27T06:10:56.863Z,36.93
2018-11-27T06:13:25.051Z,42.10
2018-11-27T06:15:53.245Z,38.40
2018-11-27T06:18:21.415Z,34.80
2018-11-27T06:20:49.727Z,31.07
2018-11-27T06:26:09.070Z,41.43
2018-11-27T06:28:37.413Z,27.93
2018-11-27T06:31:06.260Z,37.60
2018-11-27T06:33:34.941Z,36.87
2018-11-27T06:36:03.598Z,36.20
2018-11-27T06:38:31.804Z,38.77
2018-11-27T06:41:00.005Z,42.87
2018-11-27T06:43:28.233Z,51.50
2018-11-27T06:45:56.665Z,43.70
2018-11-27T06:48:24.912Z,37.20
2018-11-27T06:50:53.127Z,35.70
2018-11-27T06:53:21.345Z,45.30
2018-11-27T06:55:49.577Z,47.20
2018-11-27T06:58:17.888Z,42.13
2018-11-27T07:00:46.094Z,41.10
2018-11-27T07:03:14.671Z,40.40
2018-11-27T07:05:42.879Z,42.47
2018-11-27T07:08:11.122Z,35.57
2018-11-27T07:10:41.121Z,33.43
2018-11-27T07:13:13.505Z,26.63
2018-11-27T07:15:41.717Z,47.83
2018-11-27T07:18:09.948Z,43.27
2018-11-27T07:20:38.249Z,38.43
2018-11-27T07:23:07.032Z,33.23
2018-11-27T07:25:35.457Z,38.10
2018-11-27T07:28:03.697Z,49.53
2018-11-27T07:30:31.931Z,31.17
2018-11-27T07:33:00.160Z,36.90
2018-11-27T07:35:28.387Z,45.70
2018-11-27T07:37:56.629Z,43.33
2018-11-27T07:40:26.505Z,38.60
2018-11-27T07:43:00.213Z,47.80
2018-11-27T07:45:28.457Z,39.17
2018-11-27T07:47:56.694Z,42.67
2018-11-27T07:50:24.920Z,41.80
2018-11-27T07:52:53.137Z,37.73
2018-11-27T07:55:22.516Z,43.47
2018-11-27T07:57:52.421Z,36.97
2018-11-27T08:00:24.476Z,34.67
2018-11-27T08:02:54.789Z,39.10
2018-11-27T08:05:28.184Z,39.53
2018-11-27T08:07:57.305Z,36.30
2018-11-27T08:10:26.664Z,36.03
2018-11-27T08:12:55.246Z,46.77
2018-11-27T08:15:26.350Z,35.60
2018-11-27T08:17:54.783Z,37.27
2018-11-27T08:20:27.824Z,41.93
2018-11-27T08:22:56.251Z,38.57
2018-11-27T08:25:24.482Z,37.90
2018-11-27T08:27:52.705Z,34.30
2018-11-27T08:30:21.789Z,37.37
2018-11-27T08:32:50.494Z,41.50
2018-11-27T08:35:21.125Z,37.13
2018-11-27T08:37:50.342Z,32.60
2018-11-27T08:40:19.594Z,30.90
2018-11-27T08:42:48.252Z,41.50
2018-11-27T08:45:18.324Z,31.17
2018-11-27T08:47:47.203Z,44.27
2018-11-27T08:50:18.155Z,37.80
2018-11-27T08:52:50.003Z,40.67
2018-11-27T08:55:22.760Z,36.77
2018-11-27T08:57:51.069Z,31.27
2018-11-27T09:00:20.518Z,47.23
2018-11-27T09:02:48.732Z,38.57
2018-11-27T09:05:16.940Z,41.10
2018-11-27T09:07:45.684Z,36.53
2018-11-27T09:10:16.116Z,36.40
2018-11-27T09:12:44.316Z,46.93
2018-11-27T09:15:16.424Z,37.60
2018-11-27T09:18:08.954Z,43.67
2018-11-27T09:20:37.180Z,39.30
2018-11-27T09:23:05.698Z,37.60
2018-11-27T09:25:34.120Z,39.20
2018-11-27T09:28:02.317Z,42.20
2018-11-27T09:30:30.517Z,35.60
2018-11-27T09:32:58.720Z,41.20
2018-11-27T09:35:26.902Z,42.47
2018-11-27T09:37:55.129Z,42.03
2018-11-27T09:40:23.310Z,41.60
2018-11-27T09:42:51.496Z,38.30
2018-11-27T09:45:21.088Z,42.50
2018-11-27T09:47:50.852Z,37.53
2018-11-27T09:50:19.032Z,41.70
2018-11-27T09:52:47.482Z,40.43
2018-11-27T09:55:17.827Z,40.50
2018-11-27T09:57:46.053Z,44.90
2018-11-27T10:00:17.772Z,46.87
2018-11-27T10:02:46.021Z,43.83
2018-11-27T10:05:14.496Z,44.97
2018-11-27T10:07:42.689Z,42.03
2018-11-27T10:10:11.983Z,37.57
2018-11-27T10:12:40.201Z,40.33
2018-11-27T10:15:12.839Z,42.73
2018-11-27T10:17:41.041Z,50.60
2018-11-27T10:20:11.952Z,48.13
2018-11-27T10:22:40.206Z,39.27
2018-11-27T10:25:10.045Z,44.57
2018-11-27T10:27:38.247Z,44.57
2018-11-27T10:30:25.137Z,41.53
2018-11-27T10:32:56.680Z,40.03
2018-11-27T10:35:25.868Z,44.13
2018-11-27T10:37:54.144Z,42.50
2018-11-27T10:40:22.586Z,40.80
2018-11-27T10:42:51.103Z,44.33
2018-11-27T10:45:20.295Z,44.73
2018-11-27T10:47:49.530Z,47.13
2018-11-27T10:50:18.073Z,41.37
2018-11-27T10:52:47.306Z,46.33
2018-11-27T10:55:16.387Z,52.67
2018-11-27T10:57:44.640Z,39.80
2018-11-27T11:00:28.809Z,41.10
2018-11-27T11:04:04.035Z,51.10
2018-11-27T11:06:32.912Z,38.60
2018-11-27T11:09:01.589Z,44.47
2018-11-27T11:11:29.778Z,47.97
2018-11-27T11:13:57.971Z,49.50
2018-11-27T11:16:26.201Z,46.53
2018-11-27T11:18:54.388Z,46.57
2018-11-27T11:21:22.577Z,45.73
2018-11-27T11:23:51.017Z,46.03
2018-11-27T11:26:19.206Z,46.40
2018-11-27T11:28:47.412Z,52.60
2018-11-27T11:31:15.604Z,46.40
2018-11-27T11:33:44.040Z,44.80
2018-11-27T11:36:12.450Z,46.83
2018-11-27T11:38:40.636Z,42.17
2018-11-27T11:41:08.869Z,42.73
2018-11-27T11:43:37.310Z,44.00
2018-11-27T11:46:05.945Z,56.87
2018-11-27T11:48:34.138Z,51.70
2018-11-27T11:51:02.344Z,49.87
2018-11-27T11:53:30.545Z,51.23
2018-11-27T11:55:58.789Z,50.57
2018-11-27T11:58:26.996Z,47.90
2018-11-27T12:00:56.141Z,55.27
2018-11-27T12:03:24.576Z,50.77
2018-11-27T12:05:53.014Z,53.20
2018-11-27T12:08:21.242Z,51.10
2018-11-27T12:10:49.448Z,52.53
2018-11-27T12:13:17.658Z,51.40
2018-11-27T12:15:45.881Z,50.43
2018-11-27T12:18:14.520Z,57.33
2018-11-27T12:20:42.717Z,52.40
2018-11-27T12:23:11.676Z,55.70
2018-11-27T12:25:40.376Z,54.80
2018-11-27T12:28:14.708Z,57.90
2018-11-27T12:30:38.146Z,58.67
2018-11-27T12:33:06.664Z,53.57
2018-11-27T12:35:35.080Z,58.10
2018-11-27T12:38:03.527Z,51.30
2018-11-27T12:40:31.761Z,59.30
2018-11-27T12:43:00.029Z,58.63
2018-11-27T12:45:30.010Z,53.50
2018-11-27T12:48:00.029Z,57.90
2018-11-27T12:50:42.332Z,56.07
2018-11-27T12:53:16.868Z,55.10
2018-11-27T12:55:41.739Z,55.67
2018-11-27T12:58:10.057Z,52.80
2018-11-27T13:00:38.245Z,54.97
2018-11-27T13:03:06.650Z,58.57
2018-11-27T13:05:38.037Z,53.77
2018-11-27T13:08:13.600Z,49.73
2018-11-27T13:10:41.795Z,58.83
2018-11-27T13:13:10.001Z,51.67
2018-11-27T13:15:39.105Z,53.77
2018-11-27T13:18:08.400Z,48.47
2018-11-27T13:20:36.994Z,58.90
2018-11-27T13:23:05.213Z,46.53
2018-11-27T13:25:33.385Z,46.73
2018-11-27T13:28:01.570Z,46.77
2018-11-27T13:30:39.291Z,47.03
2018-11-27T13:33:09.516Z,45.80
2018-11-27T13:35:38.505Z,56.83
2018-11-27T13:38:07.308Z,61.07
2018-11-27T13:40:36.208Z,49.47
2018-11-27T13:43:05.593Z,52.93
2018-11-27T13:45:33.781Z,54.73
2018-11-27T13:48:02.192Z,50.40
2018-11-27T13:50:30.387Z,45.13
2018-11-27T13:52:58.834Z,53.10
2018-11-27T13:55:27.030Z,47.00
2018-11-27T13:57:55.688Z,48.67
2018-11-27T14:00:23.918Z,52.20
2018-11-27T14:02:54.370Z,53.30
2018-11-27T14:05:24.561Z,52.57
2018-11-27T14:07:52.846Z,46.73
2018-11-27T14:10:21.104Z,59.83
2018-11-27T14:12:49.372Z,45.63
2018-11-27T14:15:19.553Z,46.63
2018-11-27T14:17:47.949Z,42.87
2018-11-27T14:20:16.176Z,45.03
2018-11-27T14:22:45.290Z,48.83
2018-11-27T14:25:13.890Z,52.63
2018-11-27T14:27:42.129Z,53.23
2018-11-27T14:30:21.804Z,56.93
2018-11-27T14:32:50.271Z,49.23
2018-11-27T14:35:19.445Z,55.33
2018-11-27T14:37:48.767Z,45.57
2018-11-27T14:40:21.869Z,48.17
2018-11-27T14:42:50.169Z,46.43
2018-11-27T14:45:19.718Z,46.10
2018-11-27T14:47:50.872Z,49.83
2018-11-27T14:50:19.138Z,46.60
2018-11-27T14:52:47.349Z,51.03
2018-11-27T14:55:16.730Z,47.80
2018-11-27T14:57:44.934Z,54.47
2018-11-27T15:00:16.308Z,46.00
2018-11-27T15:02:44.521Z,51.13
2018-11-27T15:05:14.810Z,50.87
2018-11-27T15:07:43.032Z,40.97
2018-11-27T15:10:12.351Z,53.73
2018-11-27T15:12:40.565Z,47.87
2018-11-27T15:15:10.535Z,47.63
2018-11-27T15:17:38.773Z,61.33
2018-11-27T15:20:14.497Z,60.87
2018-11-27T15:22:42.825Z,52.37
2018-11-27T15:25:11.068Z,56.70
2018-11-27T15:27:39.273Z,53.37
2018-11-27T15:30:24.456Z,65.20
2018-11-27T15:32:56.664Z,56.37
2018-11-27T15:35:24.945Z,65.43
2018-11-27T15:37:53.153Z,70.37
2018-11-27T15:40:26.673Z,69.40
2018-11-27T15:42:55.147Z,71.70
2018-11-27T15:45:32.221Z,61.97
2018-11-27T15:48:00.553Z,68.07
2018-11-27T15:50:28.990Z,70.60
2018-11-27T15:52:57.421Z,60.97
2018-11-27T15:55:30.865Z,57.93
2018-11-27T15:58:04.767Z,72.17
2018-11-27T16:00:33.017Z,61.33
2018-11-27T16:03:01.298Z,60.67
2018-11-27T16:05:29.634Z,67.27
2018-11-27T16:07:57.844Z,68.20
2018-11-27T16:10:26.060Z,60.73
2018-11-27T16:12:54.268Z,68.47
2018-11-27T16:15:22.497Z,59.97
2018-11-27T16:17:50.883Z,57.43
2018-11-27T16:20:21.363Z,57.17
2018-11-27T16:22:50.480Z,72.07
2018-11-27T16:25:20.832Z,59.07
2018-11-27T16:27:49.037Z,61.03
2018-11-27T16:30:20.664Z,53.87
2018-11-27T16:32:48.864Z,61.03
2018-11-27T16:35:17.089Z,62.83
2018-11-27T16:37:50.462Z,60.13
2018-11-27T16:40:20.075Z,64.77
2018-11-27T16:42:48.337Z,52.83
2018-11-27T16:45:19.629Z,52.20
2018-11-27T16:47:48.075Z,50.93
2018-11-27T16:50:16.884Z,62.33
2018-11-27T16:52:45.385Z,57.30
2018-11-27T16:55:16.979Z,64.40
2018-11-27T16:57:45.188Z,61.43
2018-11-27T17:00:29.853Z,62.60
2018-11-27T17:02:59.251Z,63.97
2018-11-27T17:05:29.108Z,57.20
2018-11-27T17:07:57.500Z,55.83
2018-11-27T17:10:25.740Z,69.90
2018-11-27T17:12:55.389Z,60.30
2018-11-27T17:15:24.746Z,65.80
2018-11-27T17:17:53.156Z,57.10
2018-11-27T17:20:23.944Z,68.17
2018-11-27T17:22:53.066Z,69.97
2018-11-27T17:25:21.317Z,51.50
2018-11-27T17:27:49.864Z,59.80
2018-11-27T17:30:22.345Z,61.27
2018-11-27T17:32:50.929Z,59.67
2018-11-27T17:35:19.396Z,58.80
2018-11-27T17:37:47.585Z,55.23
2018-11-27T17:40:15.772Z,67.83
2018-11-27T17:42:43.977Z,57.60
2018-11-27T17:45:13.941Z,57.13
2018-11-27T17:47:42.308Z,60.50
2018-11-27T17:50:13.452Z,56.93
2018-11-27T17:52:41.826Z,59.33
2018-11-27T17:55:10.961Z,58.53
2018-11-27T17:57:39.152Z,73.03
2018-11-27T18:00:13.857Z,68.30
2018-11-27T18:02:42.480Z,61.20
2018-11-27T18:05:10.733Z,56.53
2018-11-27T18:07:39.046Z,57.27
2018-11-27T18:10:08.980Z,66.10
2018-11-27T18:12:37.229Z,61.63
2018-11-27T18:15:09.012Z,59.87
2018-11-27T18:17:37.215Z,59.17
2018-11-27T18:20:05.856Z,69.53
2018-11-27T18:22:34.085Z,60.03
2018-11-27T18:25:02.452Z,65.23
2018-11-27T18:27:30.648Z,58.97
2018-11-27T18:29:58.837Z,62.90
2018-11-27T18:32:27.092Z,69.53
2018-11-27T18:34:55.285Z,73.30
2018-11-27T18:37:23.465Z,62.60
2018-11-27T18:39:51.657Z,61.77
2018-11-27T18:42:19.856Z,65.43
2018-11-27T18:44:48.081Z,58.33
2018-11-27T18:47:16.272Z,58.30
2018-11-27T18:49:44.467Z,57.67
2018-11-27T18:52:12.653Z,63.07
2018-11-27T18:54:40.868Z,68.57
2018-11-27T18:57:09.101Z,64.13
2018-11-27T18:59:37.542Z,71.43
2018-11-27T19:02:06.315Z,70.90
2018-11-27T19:04:34.536Z,61.27
2018-11-27T19:07:02.750Z,58.60
2018-11-27T19:09:31.198Z,66.40
2018-11-27T19:11:59.409Z,63.57
2018-11-27T19:14:27.620Z,62.87
2018-11-27T19:16:55.843Z,64.37
2018-11-27T19:19:24.060Z,70.13
2018-11-27T19:21:52.277Z,60.60
2018-11-27T19:24:20.511Z,60.00
2018-11-27T19:26:48.724Z,69.00
2018-11-27T19:29:17.161Z,62.63
2018-11-27T19:31:45.382Z,59.60
2018-11-27T19:34:13.813Z,60.93
2018-11-27T19:36:42.256Z,59.80
2018-11-27T19:39:10.473Z,84.47
2018-11-27T19:41:38.693Z,58.43
2018-11-27T19:44:07.132Z,69.33
2018-11-27T19:46:35.345Z,75.00
2018-11-27T19:49:03.580Z,73.13
2018-11-27T19:51:32.716Z,69.60
2018-11-27T19:54:01.021Z,63.80
2018-11-27T19:56:29.221Z,80.43
2018-11-27T19:58:57.469Z,64.53
2018-11-27T20:01:25.891Z,62.10
2018-11-27T20:03:54.082Z,73.23
2018-11-27T20:06:22.278Z,68.17
2018-11-27T20:08:50.474Z,65.87
2018-11-27T20:11:18.892Z,68.13
2018-11-27T20:13:47.086Z,64.70
2018-11-27T20:16:15.284Z,70.93
2018-11-27T20:18:43.505Z,76.70
2018-11-27T20:21:11.850Z,80.50
2018-11-27T20:23:40.075Z,70.80
2018-11-27T20:26:08.494Z,81.40
2018-11-27T20:28:36.693Z,63.00
2018-11-27T20:31:05.116Z,54.80
2018-11-27T20:33:33.314Z,65.30
2018-11-27T20:36:01.521Z,60.97
2018-11-27T20:38:29.712Z,79.63
2018-11-27T20:40:57.901Z,77.23
2018-11-27T20:43:26.325Z,60.20
2018-11-27T20:45:54.516Z,75.37
2018-11-27T20:48:22.720Z,70.63
2018-11-27T20:50:51.697Z,70.97
2018-11-27T20:53:19.889Z,72.07
2018-11-27T20:55:48.400Z,77.87
2018-11-27T20:58:16.624Z,80.13
2018-11-27T21:00:46.681Z,82.50
2018-11-27T21:03:14.893Z,77.50
2018-11-27T21:05:43.108Z,81.80
2018-11-27T21:08:11.344Z,104.20
2018-11-27T21:10:39.749Z,70.67
2018-11-27T21:13:09.464Z,66.00
2018-11-27T21:15:38.537Z,92.97
2018-11-27T21:18:07.353Z,95.37
2018-11-27T21:20:36.783Z,88.80
2018-11-27T21:23:05.071Z,78.90
2018-11-27T21:25:33.338Z,73.80
2018-11-27T21:28:04.563Z,68.93
2018-11-27T21:30:32.797Z,71.83
2018-11-27T21:33:01.008Z,61.93
2018-11-27T21:35:29.681Z,71.97
2018-11-27T21:37:57.892Z,70.40
2018-11-27T21:40:26.112Z,58.10
2018-11-27T21:42:54.321Z,62.63
2018-11-27T21:45:25.990Z,82.03
2018-11-27T21:47:55.112Z,93.23
2018-11-27T21:50:29.203Z,151.17
2018-11-27T21:52:58.235Z,163.13
2018-11-27T21:55:26.947Z,165.03
2018-11-27T21:57:55.149Z,129.93
2018-11-27T22:00:24.632Z,78.47
2018-11-27T22:02:53.368Z,121.73
2018-11-27T22:05:21.577Z,128.33
2018-11-27T22:07:50.004Z,143.80
2018-11-27T22:10:20.557Z,146.67
2018-11-27T22:12:53.072Z,84.57
2018-11-27T22:15:37.418Z,104.07
2018-11-27T22:18:08.552Z,121.30
2018-11-27T22:20:36.993Z,123.90
2018-11-27T22:23:06.659Z,84.13
2018-11-27T22:25:34.865Z,71.83
2018-11-27T22:28:03.494Z,152.47
2018-11-27T22:30:31.684Z,140.27
2018-11-27T22:33:00.103Z,151.27
2018-11-27T22:35:28.300Z,208.73
2018-11-27T22:37:56.723Z,221.77
2018-11-27T22:40:26.024Z,49.87
2018-11-27T22:42:55.137Z,96.17
2018-11-27T22:45:25.788Z,66.03
2018-11-27T22:47:53.985Z,61.63
2018-11-27T22:50:22.181Z,56.53
2018-11-27T22:52:50.392Z,75.90
2018-11-27T22:55:18.600Z,51.53
2018-11-27T22:57:46.805Z,67.30
2018-11-27T23:00:22.185Z,73.00
2018-11-27T23:02:50.390Z,60.90
2018-11-27T23:05:19.748Z,53.43
2018-11-27T23:07:47.972Z,70.00
2018-11-27T23:10:16.211Z,86.53
2018-11-27T23:12:44.653Z,67.50
2018-11-27T23:15:14.258Z,73.53
2018-11-27T23:17:42.496Z,65.23
2018-11-27T23:20:13.072Z,72.07
2018-11-27T23:22:41.292Z,61.73
2018-11-27T23:25:10.937Z,56.10
2018-11-27T23:27:39.405Z,57.17
2018-11-27T23:30:13.060Z,53.90
2018-11-27T23:32:41.496Z,57.73
2018-11-27T23:35:09.812Z,57.97
2018-11-27T23:37:38.004Z,58.93
2018-11-27T23:40:13.720Z,59.73
2018-11-27T23:42:42.296Z,52.47
2018-11-27T23:45:12.381Z,63.97
2018-11-27T23:47:40.569Z,61.50
2018-11-27T23:50:09.961Z,64.33
2018-11-27T23:52:38.166Z,57.70
2018-11-27T23:55:08.564Z,63.67
2018-11-27T23:57:37.100Z,68.03
